ポートルイス の空港の天気 - METARとTAF

サー・シウサガル・ラングラーム国際空港 ( FIMP / MRU ) - モーリシャス ポートルイス
飛行場実況気象(Metar)
観測時間02/01 12:00 MUT (02/01 08:00 UTC)
風向・風速南南東 5m/s
視程10km以上
天気現象
全天の8割程度の雲 雲底高度 520m
気温30℃
湿度66%
気圧1013hPa
METARFIMP 010800Z 16010KT 9999 BKN017 30/23 Q1013
過去の天気等 Google飛行場航空写真 Wunderground天気予報

過去48時間のMETAR

飛行場予報(TAF)
発表時間: 2/01 09:30 MUT (2/01 05:30 UTC)
予報対象時間: 1日10時 MUT ~ 2日16時 MUT
風向・風速南東 4m/s
視程10km以上
全天の8割程度の雲 雲底高度 520m
1日22時 MUT ~ 2日4時 MUT に一時的に
視程7000m
天気現象弱いしゅう雨
全天の8割程度の雲 雲底高度 490m
TAF COR FIMP 010530Z 0106/0212 14007KT 9999 BKN017
TEMPO 0118/0200 7000 -SHRA BKN016